createdAt,value
2018-09-04T00:02:04.431Z,16.74
2018-09-04T00:04:33.654Z,16.73
2018-09-04T00:07:02.262Z,16.72
2018-09-04T00:09:30.882Z,16.72
2018-09-04T00:11:59.550Z,16.71
2018-09-04T00:14:28.230Z,16.69
2018-09-04T00:16:56.833Z,16.63
2018-09-04T00:19:25.422Z,16.65
2018-09-04T00:21:54.025Z,16.61
2018-09-04T00:24:22.622Z,16.61
2018-09-04T00:26:51.263Z,16.60
2018-09-04T00:29:19.926Z,16.55
2018-09-04T00:31:48.474Z,16.60
2018-09-04T00:34:17.111Z,16.60
2018-09-04T00:36:45.709Z,16.61
2018-09-04T00:39:14.330Z,16.61
2018-09-04T00:41:42.914Z,16.61
2018-09-04T00:44:11.519Z,16.63
2018-09-04T00:46:40.166Z,16.63
2018-09-04T00:49:08.732Z,16.63
2018-09-04T00:51:37.350Z,16.63
2018-09-04T00:54:06.000Z,16.63
2018-09-04T00:56:34.662Z,16.65
2018-09-04T00:59:03.361Z,16.69
2018-09-04T01:01:31.953Z,16.68
2018-09-04T01:04:00.521Z,16.68
2018-09-04T01:06:29.165Z,16.63
2018-09-04T01:08:57.813Z,16.68
2018-09-04T01:11:26.374Z,16.68
2018-09-04T01:13:54.993Z,16.70
2018-09-04T01:16:23.597Z,16.69
2018-09-04T01:18:52.210Z,16.67
2018-09-04T01:21:20.814Z,16.64
2018-09-04T01:23:49.457Z,16.63
2018-09-04T01:26:18.188Z,16.61
2018-09-04T01:28:46.865Z,16.60
2018-09-04T01:31:15.406Z,16.57
2018-09-04T01:33:44.090Z,16.56
2018-09-04T01:36:12.677Z,16.56
2018-09-04T01:38:41.343Z,16.58
2018-09-04T01:41:09.917Z,16.59
2018-09-04T01:43:38.474Z,16.57
2018-09-04T01:46:07.049Z,16.54
2018-09-04T01:48:35.618Z,16.54
2018-09-04T01:51:04.326Z,16.51
2018-09-04T01:53:32.901Z,16.50
2018-09-04T01:56:01.487Z,16.48
2018-09-04T01:58:30.170Z,16.46
2018-09-04T02:00:58.804Z,16.42
2018-09-04T02:03:27.407Z,16.43
2018-09-04T02:05:55.977Z,16.44
2018-09-04T02:08:24.568Z,16.42
2018-09-04T02:10:53.194Z,16.41
2018-09-04T02:13:21.841Z,16.40
2018-09-04T02:15:50.506Z,16.39
2018-09-04T02:18:19.177Z,16.42
2018-09-04T02:20:47.794Z,16.43
2018-09-04T02:23:16.468Z,16.41
2018-09-04T02:25:45.130Z,16.38
2018-09-04T02:28:13.656Z,16.37
2018-09-04T02:30:42.317Z,16.35
2018-09-04T02:33:11.044Z,16.32
2018-09-04T02:35:39.568Z,16.29
2018-09-04T02:38:08.603Z,16.28
2018-09-04T02:40:37.737Z,16.31
2018-09-04T02:43:06.613Z,16.30
2018-09-04T02:45:35.215Z,16.28
2018-09-04T02:48:03.902Z,16.28
2018-09-04T02:50:36.840Z,16.29
2018-09-04T02:53:05.515Z,16.29
2018-09-04T02:55:34.113Z,16.29
2018-09-04T02:58:02.668Z,16.29
2018-09-04T03:00:31.286Z,16.29
2018-09-04T03:02:59.910Z,16.30
2018-09-04T03:05:28.503Z,16.29
2018-09-04T03:07:57.082Z,16.30
2018-09-04T03:10:25.647Z,16.32
2018-09-04T03:12:54.271Z,16.31
2018-09-04T03:15:22.849Z,16.30
2018-09-04T03:17:51.406Z,16.29
2018-09-04T03:20:20.084Z,16.28
2018-09-04T03:22:48.632Z,16.27
2018-09-04T03:25:17.249Z,16.23
2018-09-04T03:27:45.878Z,16.26
2018-09-04T03:30:14.458Z,16.25
2018-09-04T03:32:43.041Z,16.27
2018-09-04T03:35:11.646Z,16.26
2018-09-04T03:37:40.270Z,16.27
2018-09-04T03:40:08.865Z,16.27
2018-09-04T03:42:37.558Z,16.28
2018-09-04T03:45:06.918Z,16.29
2018-09-04T03:47:35.495Z,16.30
2018-09-04T03:50:04.125Z,16.29
2018-09-04T03:52:32.766Z,16.28
2018-09-04T03:55:01.369Z,16.26
2018-09-04T03:57:29.992Z,16.26
2018-09-04T03:59:58.654Z,16.25
2018-09-04T04:02:27.352Z,16.25
2018-09-04T04:04:56.004Z,16.26
2018-09-04T04:07:24.605Z,16.26
2018-09-04T04:09:53.403Z,16.25
2018-09-04T04:12:22.098Z,16.25
2018-09-04T04:14:50.698Z,16.24
2018-09-04T04:17:19.351Z,16.23
2018-09-04T04:19:48.061Z,16.24
2018-09-04T04:22:16.701Z,16.25
2018-09-04T04:24:45.310Z,16.23
2018-09-04T04:27:13.929Z,16.23
2018-09-04T04:29:42.567Z,16.24
2018-09-04T04:32:11.164Z,16.24
2018-09-04T04:34:39.736Z,16.24
2018-09-04T04:37:08.415Z,16.24
2018-09-04T04:39:37.014Z,16.24
2018-09-04T04:42:05.699Z,16.25
2018-09-04T04:44:34.438Z,16.23
2018-09-04T04:47:03.069Z,16.23
2018-09-04T04:49:31.701Z,16.24
2018-09-04T04:52:00.343Z,16.24
2018-09-04T04:54:28.922Z,16.25
2018-09-04T04:56:57.602Z,16.26
2018-09-04T04:59:26.245Z,16.27
2018-09-04T05:01:54.829Z,16.26
2018-09-04T05:04:23.552Z,16.27
2018-09-04T05:06:52.358Z,16.26
2018-09-04T05:09:21.145Z,16.24
2018-09-04T05:11:49.748Z,16.21
2018-09-04T05:14:18.384Z,16.20
2018-09-04T05:16:47.033Z,16.19
2018-09-04T05:19:15.668Z,16.18
2018-09-04T05:21:44.337Z,16.14
2018-09-04T05:24:12.915Z,16.14
2018-09-04T05:26:41.508Z,16.19
2018-09-04T05:29:10.121Z,16.17
2018-09-04T05:31:43.715Z,16.17
2018-09-04T05:34:12.484Z,16.18
2018-09-04T05:36:41.174Z,16.17
2018-09-04T05:39:10.716Z,16.18
2018-09-04T05:41:39.399Z,16.19
2018-09-04T05:44:08.206Z,16.20
2018-09-04T05:46:44.616Z,16.19
2018-09-04T05:49:14.931Z,16.19
2018-09-04T05:51:43.661Z,16.16
2018-09-04T05:54:12.391Z,16.18
2018-09-04T05:56:41.033Z,16.19
2018-09-04T05:59:09.789Z,16.21
2018-09-04T06:01:38.608Z,16.21
2018-09-04T06:04:07.392Z,16.25
2018-09-04T06:06:36.049Z,16.27
2018-09-04T06:09:05.391Z,16.29
2018-09-04T06:11:34.086Z,16.32
2018-09-04T06:14:02.793Z,16.33
2018-09-04T06:16:31.787Z,16.34
2018-09-04T06:19:00.443Z,16.36
2018-09-04T06:21:29.078Z,16.36
2018-09-04T06:23:57.762Z,16.33
2018-09-04T06:26:26.386Z,16.39
2018-09-04T06:28:54.979Z,16.37
2018-09-04T06:31:23.623Z,16.40
2018-09-04T06:33:52.419Z,16.44
2018-09-04T06:36:21.334Z,16.44
2018-09-04T06:38:50.053Z,16.45
2018-09-04T06:41:18.675Z,16.48
2018-09-04T06:43:47.363Z,16.45
2018-09-04T06:46:15.999Z,16.52
2018-09-04T06:48:44.611Z,16.51
2018-09-04T06:51:13.198Z,16.54
2018-09-04T06:53:41.753Z,16.58
2018-09-04T06:56:10.369Z,16.61
2018-09-04T06:58:38.964Z,16.65
2018-09-04T07:01:07.629Z,16.70
2018-09-04T07:03:36.299Z,16.72
2018-09-04T07:06:05.269Z,16.76
2018-09-04T07:08:33.917Z,16.76
2018-09-04T07:11:02.586Z,16.77
2018-09-04T07:13:31.249Z,16.74
2018-09-04T07:15:59.854Z,16.76
2018-09-04T07:18:28.478Z,16.77
2018-09-04T07:20:57.130Z,16.75
2018-09-04T07:23:25.925Z,16.72
2018-09-04T07:25:54.520Z,16.70
2018-09-04T07:28:23.330Z,16.68
2018-09-04T07:30:52.016Z,16.63
2018-09-04T07:33:20.764Z,16.60
2018-09-04T07:35:49.385Z,16.57
2018-09-04T07:38:18.041Z,16.54
2018-09-04T07:40:46.681Z,16.53
2018-09-04T07:43:16.112Z,16.52
2018-09-04T07:45:45.044Z,16.51
2018-09-04T07:48:13.957Z,16.51
2018-09-04T07:50:42.636Z,16.48
2018-09-04T07:53:11.251Z,16.51
2018-09-04T07:55:39.850Z,16.53
2018-09-04T07:58:08.513Z,16.48
2018-09-04T08:00:37.173Z,16.54
2018-09-04T08:03:05.884Z,16.56
2018-09-04T08:05:34.535Z,16.58
2018-09-04T08:08:03.227Z,16.60
2018-09-04T08:10:35.445Z,16.65
2018-09-04T08:13:06.266Z,16.71
2018-09-04T08:15:35.221Z,16.78
2018-09-04T08:18:04.231Z,16.83
2018-09-04T08:20:32.980Z,16.88
2018-09-04T08:23:01.517Z,16.96
2018-09-04T08:25:30.187Z,17.02
2018-09-04T08:27:58.852Z,17.10
2018-09-04T08:30:27.497Z,17.17
2018-09-04T08:32:56.145Z,17.19
2018-09-04T08:35:24.692Z,17.27
2018-09-04T08:37:58.559Z,17.31
2018-09-04T08:40:27.261Z,17.38
2018-09-04T08:42:55.931Z,17.41
2018-09-04T08:45:24.561Z,17.53
2018-09-04T08:47:53.201Z,17.59
2018-09-04T08:50:21.788Z,17.64
2018-09-04T08:52:50.433Z,17.70
2018-09-04T08:55:19.138Z,17.75
2018-09-04T08:57:47.758Z,17.80
2018-09-04T09:00:16.389Z,17.91
2018-09-04T09:02:45.018Z,17.97
2018-09-04T09:05:13.655Z,18.02
2018-09-04T09:07:42.253Z,18.09
2018-09-04T09:10:10.930Z,18.14
2018-09-04T09:12:39.607Z,18.20
2018-09-04T09:15:08.225Z,18.27
2018-09-04T09:17:36.828Z,18.30
2018-09-04T09:20:05.598Z,18.35
2018-09-04T09:22:34.269Z,18.38
2018-09-04T09:25:02.913Z,18.45
2018-09-04T09:27:31.627Z,18.52
2018-09-04T09:30:00.281Z,18.59
2018-09-04T09:32:28.935Z,18.61
2018-09-04T09:34:57.514Z,18.67
2018-09-04T09:37:26.158Z,18.72
2018-09-04T09:39:54.823Z,18.75
2018-09-04T09:42:23.496Z,18.76
2018-09-04T09:44:52.121Z,18.80
2018-09-04T09:47:20.739Z,18.85
2018-09-04T09:49:49.430Z,18.90
2018-09-04T09:52:18.135Z,18.96
2018-09-04T09:54:46.806Z,19.01
2018-09-04T09:57:15.514Z,19.05
2018-09-04T09:59:44.094Z,19.11
2018-09-04T10:02:17.809Z,19.17
2018-09-04T10:04:46.426Z,19.23
2018-09-04T10:07:15.137Z,19.30
2018-09-04T10:09:43.790Z,19.34
2018-09-04T10:12:12.481Z,19.39
2018-09-04T10:14:41.118Z,19.45
2018-09-04T10:17:10.069Z,19.50
2018-09-04T10:19:38.679Z,19.51
2018-09-04T10:22:07.482Z,19.54
2018-09-04T10:24:36.119Z,19.56
2018-09-04T10:27:04.829Z,19.63
2018-09-04T10:29:33.425Z,19.65
2018-09-04T10:32:02.185Z,19.70
2018-09-04T10:34:30.851Z,19.73
2018-09-04T10:36:59.485Z,19.77
2018-09-04T10:39:33.325Z,19.81
2018-09-04T10:42:01.897Z,19.86
2018-09-04T10:44:32.524Z,19.90
2018-09-04T10:47:01.739Z,19.92
2018-09-04T10:49:30.386Z,19.97
2018-09-04T10:51:59.021Z,20.07
2018-09-04T10:54:27.714Z,20.14
2018-09-04T10:56:56.402Z,20.22
2018-09-04T10:59:24.968Z,20.30
2018-09-04T11:01:53.675Z,20.37
2018-09-04T11:04:22.252Z,20.42
2018-09-04T11:06:50.990Z,20.47
2018-09-04T11:09:19.699Z,20.54
2018-09-04T11:11:48.277Z,20.61
2018-09-04T11:14:17.065Z,20.63
2018-09-04T11:16:45.650Z,20.65
2018-09-04T11:19:14.329Z,20.68
2018-09-04T11:21:42.931Z,20.69
2018-09-04T11:24:11.539Z,20.67
2018-09-04T11:26:40.226Z,20.67
2018-09-04T11:29:09.853Z,20.69
2018-09-04T11:31:38.497Z,20.73
2018-09-04T11:34:07.115Z,20.80
2018-09-04T11:36:35.726Z,20.94
2018-09-04T11:39:05.069Z,21.16
2018-09-04T11:41:33.693Z,21.24
2018-09-04T11:44:02.333Z,21.25
2018-09-04T11:46:31.005Z,21.22
2018-09-04T11:48:59.647Z,21.19
2018-09-04T11:51:28.293Z,21.15
2018-09-04T11:53:56.955Z,21.23
2018-09-04T11:56:25.599Z,21.28
2018-09-04T11:58:54.250Z,21.25
2018-09-04T12:01:26.772Z,21.16
2018-09-04T12:03:55.582Z,21.10
2018-09-04T12:06:24.345Z,21.03
2018-09-04T12:08:53.054Z,21.04
2018-09-04T12:11:21.666Z,21.08
2018-09-04T12:13:50.309Z,21.13
2018-09-04T12:16:19.006Z,21.18
2018-09-04T12:18:47.744Z,21.23
2018-09-04T12:21:16.590Z,21.24
2018-09-04T12:23:45.305Z,21.27
2018-09-04T12:26:13.982Z,21.26
2018-09-04T12:28:42.615Z,21.25
2018-09-04T12:31:11.338Z,21.26
2018-09-04T12:33:39.967Z,21.26
2018-09-04T12:36:08.673Z,21.27
2018-09-04T12:38:38.846Z,21.21
2018-09-04T12:41:12.886Z,21.12
2018-09-04T12:43:41.554Z,21.12
2018-09-04T12:46:10.184Z,21.11
2018-09-04T12:48:38.933Z,21.15
2018-09-04T12:51:07.674Z,21.18
2018-09-04T12:53:36.553Z,21.20
2018-09-04T12:56:05.257Z,21.19
2018-09-04T12:58:33.861Z,21.27
2018-09-04T13:01:02.480Z,21.44
2018-09-04T13:03:31.101Z,21.63
2018-09-04T13:06:00.252Z,21.79
2018-09-04T13:08:30.389Z,21.82
2018-09-04T13:10:59.071Z,21.78
2018-09-04T13:13:28.025Z,21.71
2018-09-04T13:15:58.159Z,21.62
2018-09-04T13:18:27.716Z,21.65
2018-09-04T13:21:01.265Z,21.73
2018-09-04T13:23:30.141Z,21.88
2018-09-04T13:25:58.804Z,21.99
2018-09-04T13:28:27.970Z,22.04
2018-09-04T13:30:56.610Z,22.07
2018-09-04T13:33:25.184Z,22.11
2018-09-04T13:35:53.829Z,22.15
2018-09-04T13:38:22.475Z,22.13
2018-09-04T13:40:55.214Z,22.09
2018-09-04T13:43:23.825Z,22.09
2018-09-04T13:45:52.474Z,22.05
2018-09-04T13:48:25.277Z,22.06
2018-09-04T13:50:53.935Z,22.09
2018-09-04T13:53:22.548Z,22.10
2018-09-04T13:55:51.306Z,22.13
2018-09-04T13:58:54.699Z,22.14
2018-09-04T14:01:23.372Z,22.09
2018-09-04T14:03:52.096Z,22.02
2018-09-04T14:06:20.803Z,21.92
2018-09-04T14:08:49.569Z,21.89
2018-09-04T14:11:18.253Z,21.86
2018-09-04T14:13:46.976Z,21.79
2018-09-04T14:16:17.878Z,21.77
2018-09-04T14:18:46.560Z,21.82
2018-09-04T14:21:15.203Z,21.89
2018-09-04T14:23:43.869Z,21.95
2018-09-04T14:26:12.556Z,22.02
2018-09-04T14:28:41.578Z,22.08
2018-09-04T14:31:10.023Z,22.13
2018-09-04T14:33:38.760Z,22.14
2018-09-04T14:36:07.512Z,22.23
2018-09-04T14:38:36.176Z,22.37
2018-09-04T14:41:05.293Z,22.63
2018-09-04T14:43:34.013Z,22.93
2018-09-04T14:46:02.827Z,23.29
2018-09-04T14:48:31.504Z,23.88
2018-09-04T14:51:00.172Z,24.17
2018-09-04T14:53:28.887Z,24.00
2018-09-04T14:55:58.262Z,23.83
2018-09-04T14:58:26.937Z,23.69
2018-09-04T15:00:55.631Z,23.62
2018-09-04T15:03:24.400Z,23.65
2018-09-04T15:05:53.894Z,23.64
2018-09-04T15:08:22.533Z,23.51
2018-09-04T15:10:51.211Z,23.44
2018-09-04T15:13:19.983Z,23.41
2018-09-04T15:15:48.699Z,23.34
2018-09-04T15:18:17.322Z,23.24
2018-09-04T15:20:46.001Z,23.41
2018-09-04T15:23:14.636Z,23.41
2018-09-04T15:25:43.365Z,23.35
2018-09-04T15:28:12.001Z,23.39
2018-09-04T15:30:40.663Z,23.39
2018-09-04T15:33:09.990Z,23.45
2018-09-04T15:35:38.956Z,23.95
2018-09-04T15:38:07.812Z,24.40
2018-09-04T15:40:36.566Z,24.48
2018-09-04T15:43:05.340Z,24.32
2018-09-04T15:45:34.209Z,24.17
2018-09-04T15:48:02.920Z,24.05
2018-09-04T15:50:31.706Z,24.04
2018-09-04T15:53:00.416Z,23.86
2018-09-04T15:55:29.160Z,23.56
2018-09-04T15:57:58.223Z,23.35
2018-09-04T16:00:26.804Z,23.13
2018-09-04T16:02:56.206Z,22.89
2018-09-04T16:05:25.035Z,22.72
2018-09-04T16:07:53.764Z,22.62
2018-09-04T16:10:22.696Z,22.53
2018-09-04T16:12:51.359Z,22.45
2018-09-04T16:15:20.086Z,22.38
2018-09-04T16:17:49.034Z,22.33
2018-09-04T16:20:17.775Z,22.45
2018-09-04T16:22:46.510Z,22.63
2018-09-04T16:25:15.260Z,22.83
2018-09-04T16:27:44.035Z,23.08
2018-09-04T16:30:12.768Z,23.30
2018-09-04T16:32:41.488Z,23.30
2018-09-04T16:35:10.513Z,23.40
2018-09-04T16:37:39.175Z,23.53
2018-09-04T16:40:07.923Z,23.63
2018-09-04T16:42:36.674Z,23.71
2018-09-04T16:45:05.660Z,23.82
2018-09-04T16:47:34.372Z,23.96
2018-09-04T16:50:03.072Z,24.02
2018-09-04T16:52:31.796Z,23.95
2018-09-04T16:55:00.571Z,23.68
2018-09-04T16:57:29.383Z,23.37
2018-09-04T16:59:58.041Z,23.10
2018-09-04T17:02:26.788Z,22.93
2018-09-04T17:04:55.525Z,22.68
2018-09-04T17:07:24.216Z,22.49
2018-09-04T17:09:53.034Z,22.35
2018-09-04T17:12:21.896Z,22.24
2018-09-04T17:14:50.604Z,22.15
2018-09-04T17:17:19.691Z,22.23
2018-09-04T17:19:48.469Z,22.18
2018-09-04T17:22:17.272Z,22.08
2018-09-04T17:24:46.041Z,21.88
2018-09-04T17:27:14.839Z,21.77
2018-09-04T17:29:43.492Z,21.71
2018-09-04T17:32:12.212Z,21.66
2018-09-04T17:34:41.475Z,21.63
2018-09-04T17:37:10.156Z,21.57
2018-09-04T17:39:38.820Z,21.50
2018-09-04T17:42:07.504Z,21.45
2018-09-04T17:44:36.231Z,21.39
2018-09-04T17:47:04.971Z,21.28
2018-09-04T17:49:33.713Z,21.23
2018-09-04T17:52:03.077Z,21.16
2018-09-04T17:54:31.805Z,21.09
2018-09-04T17:57:00.555Z,21.04
2018-09-04T17:59:29.448Z,20.99
2018-09-04T18:01:58.376Z,20.96
2018-09-04T18:04:27.083Z,20.92
2018-09-04T18:06:55.873Z,20.88
2018-09-04T18:09:24.638Z,20.84
2018-09-04T18:11:53.382Z,20.81
2018-09-04T18:14:22.350Z,20.78
2018-09-04T18:16:51.178Z,20.74
2018-09-04T18:19:20.420Z,20.70
2018-09-04T18:21:49.245Z,20.61
2018-09-04T18:24:18.090Z,20.55
2018-09-04T18:26:46.921Z,20.50
2018-09-04T18:29:15.801Z,20.46
2018-09-04T18:31:44.603Z,20.39
2018-09-04T18:34:13.297Z,20.32
2018-09-04T18:36:41.992Z,20.26
2018-09-04T18:39:10.707Z,20.18
2018-09-04T18:41:39.412Z,20.11
2018-09-04T18:44:08.108Z,20.06
2018-09-04T18:46:36.827Z,19.99
2018-09-04T18:49:05.735Z,19.91
2018-09-04T18:51:34.306Z,19.85
2018-09-04T18:54:02.964Z,19.77
2018-09-04T18:56:31.652Z,19.70
2018-09-04T18:59:00.321Z,19.63
2018-09-04T19:01:29.553Z,19.57
2018-09-04T19:03:58.821Z,19.51
2018-09-04T19:06:31.587Z,19.44
2018-09-04T19:09:00.414Z,19.38
2018-09-04T19:11:29.409Z,19.33
2018-09-04T19:13:58.218Z,19.29
2018-09-04T19:16:26.913Z,19.24
2018-09-04T19:18:55.570Z,19.20
2018-09-04T19:21:24.360Z,19.16
2018-09-04T19:23:53.537Z,19.12
2018-09-04T19:26:22.240Z,19.09
2018-09-04T19:28:50.945Z,19.05
2018-09-04T19:31:19.728Z,19.02
2018-09-04T19:33:48.454Z,19.02
2018-09-04T19:36:17.257Z,18.97
2018-09-04T19:38:45.949Z,18.97
2018-09-04T19:41:14.653Z,18.97
2018-09-04T19:43:43.363Z,18.96
2018-09-04T19:46:12.044Z,18.94
2018-09-04T19:48:40.715Z,18.94
2018-09-04T19:51:09.414Z,18.93
2018-09-04T19:53:38.156Z,18.92
2018-09-04T19:56:07.000Z,18.91
2018-09-04T19:58:35.691Z,18.92
2018-09-04T20:01:04.556Z,18.92
2018-09-04T20:03:33.320Z,18.92
2018-09-04T20:06:02.017Z,18.93
2018-09-04T20:08:30.814Z,18.94
2018-09-04T20:10:59.768Z,18.93
2018-09-04T20:13:28.620Z,18.89
2018-09-04T20:15:57.408Z,18.86
2018-09-04T20:18:26.283Z,18.85
2018-09-04T20:20:55.126Z,18.85
2018-09-04T20:23:24.149Z,18.86
2018-09-04T20:25:52.974Z,18.85
2018-09-04T20:28:21.895Z,18.86
2018-09-04T20:30:50.700Z,18.85
2018-09-04T20:33:19.650Z,18.85
2018-09-04T20:35:48.478Z,18.82
2018-09-04T20:38:17.583Z,18.83
2018-09-04T20:40:46.541Z,18.82
2018-09-04T20:43:15.235Z,18.81
2018-09-04T20:45:43.962Z,18.81
2018-09-04T20:48:12.666Z,18.82
2018-09-04T20:50:41.475Z,18.80
2018-09-04T20:53:10.271Z,18.76
2018-09-04T20:55:39.033Z,18.71
2018-09-04T20:58:18.657Z,18.68
2018-09-04T21:00:58.383Z,18.65
2018-09-04T21:03:38.202Z,18.66
2018-09-04T21:06:17.854Z,18.66
2018-09-04T21:10:59.700Z,18.65
2018-09-04T21:13:28.385Z,18.58
2018-09-04T21:15:57.140Z,18.58
2018-09-04T21:18:25.881Z,18.58
2018-09-04T21:20:54.690Z,18.58
2018-09-04T21:23:23.620Z,18.56
2018-09-04T21:25:52.351Z,18.55
2018-09-04T21:28:21.008Z,18.53
2018-09-04T21:30:49.719Z,18.52
2018-09-04T21:33:18.388Z,18.50
2018-09-04T21:35:47.049Z,18.49
2018-09-04T21:38:15.819Z,18.51
2018-09-04T21:40:44.461Z,18.50
2018-09-04T21:43:13.101Z,18.51
2018-09-04T21:45:41.760Z,18.49
2018-09-04T21:48:10.448Z,18.49
2018-09-04T21:50:39.131Z,18.49
2018-09-04T21:53:07.868Z,18.50
2018-09-04T21:55:36.611Z,18.48
2018-09-04T21:58:05.520Z,18.47
2018-09-04T22:00:34.259Z,18.46
2018-09-04T22:03:02.952Z,18.47
2018-09-04T22:05:31.612Z,18.47
2018-09-04T22:08:00.987Z,18.47
2018-09-04T22:10:29.643Z,18.49
2018-09-04T22:12:58.307Z,18.49
2018-09-04T22:15:27.003Z,18.49
2018-09-04T22:17:55.676Z,18.48
2018-09-04T22:20:24.548Z,18.48
2018-09-04T22:22:54.029Z,18.45
2018-09-04T22:25:22.789Z,18.43
2018-09-04T22:27:51.506Z,18.44
2018-09-04T22:30:20.344Z,18.44
2018-09-04T22:32:49.024Z,18.46
2018-09-04T22:35:17.691Z,18.47
2018-09-04T22:37:46.461Z,18.47
2018-09-04T22:40:15.140Z,18.47
2018-09-04T22:42:43.772Z,18.49
2018-09-04T22:45:12.476Z,18.50
2018-09-04T22:47:42.044Z,18.51
2018-09-04T22:50:15.832Z,18.50
2018-09-04T22:52:44.508Z,18.50
2018-09-04T22:55:14.044Z,18.50
2018-09-04T22:57:43.680Z,18.51
2018-09-04T23:00:13.458Z,18.52
2018-09-04T23:02:42.177Z,18.52
2018-09-04T23:05:11.012Z,18.52
2018-09-04T23:07:40.308Z,18.52
2018-09-04T23:10:09.116Z,18.53
2018-09-04T23:12:37.778Z,18.52
2018-09-04T23:15:06.537Z,18.52
2018-09-04T23:17:35.227Z,18.52
2018-09-04T23:20:04.020Z,18.51
2018-09-04T23:22:32.692Z,18.49
2018-09-04T23:25:01.358Z,18.48
2018-09-04T23:27:30.057Z,18.47
2018-09-04T23:29:58.748Z,18.45
2018-09-04T23:32:27.432Z,18.41
2018-09-04T23:34:56.124Z,18.39
2018-09-04T23:37:24.820Z,18.35
2018-09-04T23:39:53.518Z,18.32
2018-09-04T23:42:22.280Z,18.31
2018-09-04T23:44:50.956Z,18.27
2018-09-04T23:47:19.644Z,18.22
2018-09-04T23:49:48.303Z,18.17
2018-09-04T23:52:16.992Z,18.12
2018-09-04T23:54:46.029Z,18.09
2018-09-04T23:57:14.725Z,18.05
2018-09-04T23:59:43.388Z,18.00
